sensor_id;sensor_type;location;lat;lon;timestamp;P1;durP1;ratioP1;P2;durP2;ratioP2
8042;SDS011;4064;48.132;11.366;2022-09-03T00:01:21;3.07;;;2.83;;
8042;SDS011;4064;48.132;11.366;2022-09-03T00:03:56;5.53;;;3.17;;
8042;SDS011;4064;48.132;11.366;2022-09-03T00:06:30;6.13;;;3.23;;
8042;SDS011;4064;48.132;11.366;2022-09-03T00:11:46;3.07;;;2.70;;
8042;SDS011;4064;48.132;11.366;2022-09-03T00:14:40;3.20;;;2.90;;
8042;SDS011;4064;48.132;11.366;2022-09-03T00:17:17;3.10;;;2.80;;
8042;SDS011;4064;48.132;11.366;2022-09-03T00:19:57;3.10;;;2.83;;
8042;SDS011;4064;48.132;11.366;2022-09-03T00:22:38;3.80;;;2.80;;
8042;SDS011;4064;48.132;11.366;2022-09-03T00:33:46;3.00;;;2.20;;
8042;SDS011;4064;48.132;11.366;2022-09-03T00:38:45;3.43;;;3.13;;
8042;SDS011;4064;48.132;11.366;2022-09-03T00:44:19;3.83;;;2.93;;
8042;SDS011;4064;48.132;11.366;2022-09-03T00:55:12;3.40;;;2.50;;
8042;SDS011;4064;48.132;11.366;2022-09-03T01:00:34;2.90;;;2.67;;
8042;SDS011;4064;48.132;11.366;2022-09-03T01:06:18;3.37;;;2.97;;
8042;SDS011;4064;48.132;11.366;2022-09-03T01:08:58;2.77;;;2.57;;
8042;SDS011;4064;48.132;11.366;2022-09-03T01:17:44;3.90;;;2.87;;
8042;SDS011;4064;48.132;11.366;2022-09-03T01:25:53;2.90;;;2.70;;
8042;SDS011;4064;48.132;11.366;2022-09-03T01:34:58;3.20;;;3.00;;
8042;SDS011;4064;48.132;11.366;2022-09-03T01:40:38;5.77;;;3.50;;
8042;SDS011;4064;48.132;11.366;2022-09-03T01:43:48;3.73;;;3.43;;
8042;SDS011;4064;48.132;11.366;2022-09-03T01:46:25;3.50;;;3.20;;
8042;SDS011;4064;48.132;11.366;2022-09-03T01:51:35;3.43;;;3.07;;
8042;SDS011;4064;48.132;11.366;2022-09-03T01:59:58;3.40;;;3.10;;
8042;SDS011;4064;48.132;11.366;2022-09-03T02:02:30;3.83;;;3.07;;
8042;SDS011;4064;48.132;11.366;2022-09-03T02:05:08;3.93;;;3.63;;
8042;SDS011;4064;48.132;11.366;2022-09-03T02:07:44;4.10;;;3.70;;
8042;SDS011;4064;48.132;11.366;2022-09-03T02:10:39;4.43;;;3.77;;
8042;SDS011;4064;48.132;11.366;2022-09-03T02:15:42;3.33;;;3.03;;
8042;SDS011;4064;48.132;11.366;2022-09-03T02:18:13;3.77;;;3.47;;
8042;SDS011;4064;48.132;11.366;2022-09-03T02:21:01;4.60;;;3.37;;
8042;SDS011;4064;48.132;11.366;2022-09-03T02:23:27;3.67;;;3.40;;
8042;SDS011;4064;48.132;11.366;2022-09-03T02:25:57;6.23;;;3.63;;
8042;SDS011;4064;48.132;11.366;2022-09-03T02:28:25;5.27;;;4.10;;
8042;SDS011;4064;48.132;11.366;2022-09-03T02:30:53;4.20;;;3.50;;
8042;SDS011;4064;48.132;11.366;2022-09-03T02:33:19;4.97;;;3.73;;
8042;SDS011;4064;48.132;11.366;2022-09-03T02:35:45;4.17;;;3.80;;
8042;SDS011;4064;48.132;11.366;2022-09-03T02:38:16;4.30;;;3.30;;
8042;SDS011;4064;48.132;11.366;2022-09-03T02:40:43;3.77;;;3.40;;
8042;SDS011;4064;48.132;11.366;2022-09-03T02:43:21;3.43;;;2.93;;
8042;SDS011;4064;48.132;11.366;2022-09-03T02:45:49;3.90;;;3.60;;
8042;SDS011;4064;48.132;11.366;2022-09-03T02:48:21;3.90;;;3.60;;
8042;SDS011;4064;48.132;11.366;2022-09-03T02:50:48;4.47;;;4.07;;
8042;SDS011;4064;48.132;11.366;2022-09-03T02:53:14;4.40;;;3.70;;
8042;SDS011;4064;48.132;11.366;2022-09-03T02:55:40;4.23;;;3.50;;
8042;SDS011;4064;48.132;11.366;2022-09-03T02:58:06;5.03;;;3.40;;
8042;SDS011;4064;48.132;11.366;2022-09-03T03:00:32;4.70;;;3.70;;
8042;SDS011;4064;48.132;11.366;2022-09-03T03:03:02;4.13;;;3.73;;
8042;SDS011;4064;48.132;11.366;2022-09-03T03:05:40;4.00;;;3.30;;
8042;SDS011;4064;48.132;11.366;2022-09-03T03:08:12;3.73;;;3.33;;
8042;SDS011;4064;48.132;11.366;2022-09-03T03:10:42;4.20;;;3.70;;
8042;SDS011;4064;48.132;11.366;2022-09-03T03:13:10;5.13;;;4.63;;
8042;SDS011;4064;48.132;11.366;2022-09-03T03:15:36;3.90;;;3.60;;
8042;SDS011;4064;48.132;11.366;2022-09-03T03:18:02;3.90;;;3.47;;
8042;SDS011;4064;48.132;11.366;2022-09-03T03:20:29;4.63;;;3.87;;
8042;SDS011;4064;48.132;11.366;2022-09-03T03:22:54;4.20;;;3.90;;
8042;SDS011;4064;48.132;11.366;2022-09-03T03:25:20;4.97;;;4.47;;
8042;SDS011;4064;48.132;11.366;2022-09-03T03:27:46;5.40;;;3.87;;
8042;SDS011;4064;48.132;11.366;2022-09-03T03:30:11;6.77;;;4.17;;
8042;SDS011;4064;48.132;11.366;2022-09-03T03:32:38;5.93;;;3.93;;
8042;SDS011;4064;48.132;11.366;2022-09-03T03:35:04;4.47;;;4.07;;
8042;SDS011;4064;48.132;11.366;2022-09-03T03:37:31;4.10;;;3.70;;
8042;SDS011;4064;48.132;11.366;2022-09-03T03:39:57;4.40;;;4.00;;
8042;SDS011;4064;48.132;11.366;2022-09-03T03:42:23;4.40;;;4.00;;
8042;SDS011;4064;48.132;11.366;2022-09-03T03:44:49;4.00;;;3.70;;
8042;SDS011;4064;48.132;11.366;2022-09-03T03:47:15;6.13;;;4.50;;
8042;SDS011;4064;48.132;11.366;2022-09-03T03:49:41;4.37;;;4.07;;
8042;SDS011;4064;48.132;11.366;2022-09-03T03:52:08;4.23;;;3.90;;
8042;SDS011;4064;48.132;11.366;2022-09-03T03:54:33;4.60;;;3.83;;
8042;SDS011;4064;48.132;11.366;2022-09-03T03:56:59;4.80;;;4.50;;
8042;SDS011;4064;48.132;11.366;2022-09-03T03:59:25;10.73;;;4.67;;
8042;SDS011;4064;48.132;11.366;2022-09-03T04:01:53;4.37;;;4.07;;
8042;SDS011;4064;48.132;11.366;2022-09-03T04:04:18;4.10;;;3.80;;
8042;SDS011;4064;48.132;11.366;2022-09-03T04:06:44;6.37;;;4.43;;
8042;SDS011;4064;48.132;11.366;2022-09-03T04:09:10;5.60;;;4.40;;
8042;SDS011;4064;48.132;11.366;2022-09-03T04:11:36;4.40;;;4.00;;
8042;SDS011;4064;48.132;11.366;2022-09-03T04:14:01;3.77;;;3.47;;
8042;SDS011;4064;48.132;11.366;2022-09-03T04:16:27;5.50;;;3.63;;
8042;SDS011;4064;48.132;11.366;2022-09-03T04:18:56;3.60;;;3.30;;
8042;SDS011;4064;48.132;11.366;2022-09-03T04:21:26;4.60;;;4.20;;
8042;SDS011;4064;48.132;11.366;2022-09-03T04:23:53;4.00;;;3.70;;
8042;SDS011;4064;48.132;11.366;2022-09-03T04:26:21;4.00;;;3.60;;
8042;SDS011;4064;48.132;11.366;2022-09-03T04:28:53;3.90;;;3.60;;
8042;SDS011;4064;48.132;11.366;2022-09-03T04:31:19;4.87;;;4.37;;
8042;SDS011;4064;48.132;11.366;2022-09-03T04:33:45;4.30;;;3.90;;
8042;SDS011;4064;48.132;11.366;2022-09-03T04:36:12;4.70;;;4.00;;
8042;SDS011;4064;48.132;11.366;2022-09-03T04:38:43;4.63;;;4.23;;
8042;SDS011;4064;48.132;11.366;2022-09-03T04:41:11;4.07;;;3.77;;
8042;SDS011;4064;48.132;11.366;2022-09-03T04:43:39;4.33;;;4.03;;
8042;SDS011;4064;48.132;11.366;2022-09-03T04:46:09;4.70;;;4.30;;
8042;SDS011;4064;48.132;11.366;2022-09-03T04:48:36;4.37;;;4.07;;
8042;SDS011;4064;48.132;11.366;2022-09-03T04:51:06;6.60;;;4.17;;
8042;SDS011;4064;48.132;11.366;2022-09-03T04:53:38;5.00;;;4.47;;
8042;SDS011;4064;48.132;11.366;2022-09-03T04:56:12;4.57;;;4.17;;
8042;SDS011;4064;48.132;11.366;2022-09-03T04:58:42;4.30;;;3.90;;
8042;SDS011;4064;48.132;11.366;2022-09-03T05:01:14;5.57;;;4.83;;
8042;SDS011;4064;48.132;11.366;2022-09-03T05:03:42;5.23;;;4.13;;
8042;SDS011;4064;48.132;11.366;2022-09-03T05:06:08;5.50;;;4.13;;
8042;SDS011;4064;48.132;11.366;2022-09-03T05:08:34;4.97;;;4.37;;
8042;SDS011;4064;48.132;11.366;2022-09-03T05:11:04;4.73;;;4.23;;
8042;SDS011;4064;48.132;11.366;2022-09-03T05:13:31;4.80;;;4.50;;
8042;SDS011;4064;48.132;11.366;2022-09-03T05:16:08;4.03;;;3.63;;
8042;SDS011;4064;48.132;11.366;2022-09-03T05:18:35;4.17;;;3.77;;
8042;SDS011;4064;48.132;11.366;2022-09-03T05:21:05;5.17;;;4.77;;
8042;SDS011;4064;48.132;11.366;2022-09-03T05:23:41;6.77;;;4.80;;
8042;SDS011;4064;48.132;11.366;2022-09-03T05:26:10;5.00;;;4.60;;
8042;SDS011;4064;48.132;11.366;2022-09-03T05:28:38;5.87;;;5.27;;
8042;SDS011;4064;48.132;11.366;2022-09-03T05:31:15;4.43;;;4.03;;
8042;SDS011;4064;48.132;11.366;2022-09-03T05:33:47;4.83;;;4.33;;
8042;SDS011;4064;48.132;11.366;2022-09-03T05:36:15;4.60;;;4.20;;
8042;SDS011;4064;48.132;11.366;2022-09-03T05:38:43;4.77;;;4.37;;
8042;SDS011;4064;48.132;11.366;2022-09-03T05:41:10;4.03;;;3.70;;
8042;SDS011;4064;48.132;11.366;2022-09-03T05:43:36;5.70;;;4.20;;
8042;SDS011;4064;48.132;11.366;2022-09-03T05:46:04;4.90;;;4.40;;
8042;SDS011;4064;48.132;11.366;2022-09-03T05:48:35;4.60;;;4.20;;
8042;SDS011;4064;48.132;11.366;2022-09-03T05:51:06;6.37;;;4.17;;
8042;SDS011;4064;48.132;11.366;2022-09-03T05:53:40;7.00;;;4.57;;
8042;SDS011;4064;48.132;11.366;2022-09-03T05:56:08;5.47;;;4.40;;
8042;SDS011;4064;48.132;11.366;2022-09-03T05:58:40;5.73;;;4.73;;
8042;SDS011;4064;48.132;11.366;2022-09-03T06:01:10;4.90;;;4.40;;
8042;SDS011;4064;48.132;11.366;2022-09-03T06:03:47;5.03;;;4.63;;
8042;SDS011;4064;48.132;11.366;2022-09-03T06:06:19;4.67;;;4.37;;
8042;SDS011;4064;48.132;11.366;2022-09-03T06:08:49;7.00;;;4.13;;
8042;SDS011;4064;48.132;11.366;2022-09-03T06:11:35;8.00;;;4.97;;
8042;SDS011;4064;48.132;11.366;2022-09-03T06:14:04;10.03;;;4.83;;
8042;SDS011;4064;48.132;11.366;2022-09-03T06:16:39;4.47;;;3.70;;
8042;SDS011;4064;48.132;11.366;2022-09-03T06:19:07;5.50;;;4.30;;
8042;SDS011;4064;48.132;11.366;2022-09-03T06:21:37;5.07;;;4.67;;
8042;SDS011;4064;48.132;11.366;2022-09-03T06:24:06;4.53;;;4.17;;
8042;SDS011;4064;48.132;11.366;2022-09-03T06:26:36;4.73;;;4.33;;
8042;SDS011;4064;48.132;11.366;2022-09-03T06:29:03;4.67;;;4.27;;
8042;SDS011;4064;48.132;11.366;2022-09-03T06:31:29;9.50;;;4.63;;
8042;SDS011;4064;48.132;11.366;2022-09-03T06:33:55;6.50;;;4.50;;
8042;SDS011;4064;48.132;11.366;2022-09-03T06:36:22;4.23;;;3.53;;
8042;SDS011;4064;48.132;11.366;2022-09-03T06:38:52;5.40;;;4.90;;
8042;SDS011;4064;48.132;11.366;2022-09-03T06:41:24;5.10;;;4.60;;
8042;SDS011;4064;48.132;11.366;2022-09-03T06:43:56;4.63;;;4.30;;
8042;SDS011;4064;48.132;11.366;2022-09-03T06:46:32;6.70;;;5.20;;
8042;SDS011;4064;48.132;11.366;2022-09-03T06:48:59;8.10;;;4.80;;
8042;SDS011;4064;48.132;11.366;2022-09-03T06:51:25;6.27;;;4.50;;
8042;SDS011;4064;48.132;11.366;2022-09-03T06:53:54;5.20;;;4.70;;
8042;SDS011;4064;48.132;11.366;2022-09-03T06:56:24;7.77;;;5.17;;
8042;SDS011;4064;48.132;11.366;2022-09-03T06:58:52;4.03;;;3.73;;
8042;SDS011;4064;48.132;11.366;2022-09-03T07:01:20;4.20;;;3.90;;
8042;SDS011;4064;48.132;11.366;2022-09-03T07:03:53;6.60;;;4.80;;
8042;SDS011;4064;48.132;11.366;2022-09-03T07:06:20;5.10;;;4.60;;
8042;SDS011;4064;48.132;11.366;2022-09-03T07:08:47;4.70;;;4.40;;
8042;SDS011;4064;48.132;11.366;2022-09-03T07:11:14;5.37;;;4.87;;
8042;SDS011;4064;48.132;11.366;2022-09-03T07:13:47;4.30;;;4.00;;
8042;SDS011;4064;48.132;11.366;2022-09-03T07:16:27;4.43;;;4.03;;
8042;SDS011;4064;48.132;11.366;2022-09-03T07:18:58;5.13;;;4.20;;
8042;SDS011;4064;48.132;11.366;2022-09-03T07:21:25;5.20;;;4.27;;
8042;SDS011;4064;48.132;11.366;2022-09-03T07:23:53;7.00;;;4.17;;
8042;SDS011;4064;48.132;11.366;2022-09-03T07:26:28;4.90;;;4.50;;
8042;SDS011;4064;48.132;11.366;2022-09-03T07:28:55;3.73;;;3.47;;
8042;SDS011;4064;48.132;11.366;2022-09-03T07:31:22;3.47;;;3.17;;
8042;SDS011;4064;48.132;11.366;2022-09-03T07:33:59;4.93;;;4.50;;
8042;SDS011;4064;48.132;11.366;2022-09-03T07:36:30;4.30;;;3.90;;
8042;SDS011;4064;48.132;11.366;2022-09-03T07:39:03;6.73;;;4.60;;
8042;SDS011;4064;48.132;11.366;2022-09-03T07:41:29;4.70;;;4.27;;
8042;SDS011;4064;48.132;11.366;2022-09-03T07:43:57;5.17;;;4.30;;
8042;SDS011;4064;48.132;11.366;2022-09-03T07:46:24;5.93;;;5.53;;
8042;SDS011;4064;48.132;11.366;2022-09-03T07:48:52;4.17;;;3.87;;
8042;SDS011;4064;48.132;11.366;2022-09-03T07:51:21;5.73;;;4.97;;
8042;SDS011;4064;48.132;11.366;2022-09-03T07:53:50;5.23;;;4.50;;
8042;SDS011;4064;48.132;11.366;2022-09-03T07:56:18;5.00;;;4.60;;
8042;SDS011;4064;48.132;11.366;2022-09-03T07:58:43;4.97;;;4.57;;
8042;SDS011;4064;48.132;11.366;2022-09-03T08:01:12;4.57;;;4.17;;
8042;SDS011;4064;48.132;11.366;2022-09-03T08:03:45;4.77;;;4.37;;
8042;SDS011;4064;48.132;11.366;2022-09-03T08:06:12;6.47;;;4.27;;
8042;SDS011;4064;48.132;11.366;2022-09-03T08:08:39;5.10;;;4.70;;
8042;SDS011;4064;48.132;11.366;2022-09-03T08:11:09;5.13;;;4.43;;
8042;SDS011;4064;48.132;11.366;2022-09-03T08:13:38;4.87;;;4.47;;
8042;SDS011;4064;48.132;11.366;2022-09-03T08:16:06;6.17;;;4.23;;
8042;SDS011;4064;48.132;11.366;2022-09-03T08:18:35;5.07;;;4.57;;
8042;SDS011;4064;48.132;11.366;2022-09-03T08:21:07;4.57;;;4.17;;
8042;SDS011;4064;48.132;11.366;2022-09-03T08:23:41;4.50;;;4.10;;
8042;SDS011;4064;48.132;11.366;2022-09-03T08:26:08;4.93;;;4.50;;
8042;SDS011;4064;48.132;11.366;2022-09-03T08:28:35;4.83;;;4.43;;
8042;SDS011;4064;48.132;11.366;2022-09-03T08:33:58;4.60;;;4.20;;
8042;SDS011;4064;48.132;11.366;2022-09-03T08:36:27;4.97;;;4.20;;
8042;SDS011;4064;48.132;11.366;2022-09-03T08:38:55;4.87;;;4.47;;
8042;SDS011;4064;48.132;11.366;2022-09-03T08:49:39;4.80;;;4.27;;
8042;SDS011;4064;48.132;11.366;2022-09-03T08:52:33;4.40;;;4.03;;
8042;SDS011;4064;48.132;11.366;2022-09-03T08:55:23;3.17;;;2.87;;
8042;SDS011;4064;48.132;11.366;2022-09-03T08:58:06;3.70;;;3.13;;
8042;SDS011;4064;48.132;11.366;2022-09-03T09:00:47;3.40;;;3.10;;
8042;SDS011;4064;48.132;11.366;2022-09-03T09:06:31;4.20;;;3.90;;
8042;SDS011;4064;48.132;11.366;2022-09-03T09:14:38;3.00;;;2.80;;
8042;SDS011;4064;48.132;11.366;2022-09-03T09:19:50;5.40;;;2.50;;
8042;SDS011;4064;48.132;11.366;2022-09-03T09:22:27;2.93;;;2.63;;
8042;SDS011;4064;48.132;11.366;2022-09-03T09:24:57;3.17;;;2.70;;
8042;SDS011;4064;48.132;11.366;2022-09-03T09:27:25;3.60;;;2.03;;
8042;SDS011;4064;48.132;11.366;2022-09-03T09:29:53;2.70;;;2.20;;
8042;SDS011;4064;48.132;11.366;2022-09-03T09:32:25;2.33;;;2.10;;
8042;SDS011;4064;48.132;11.366;2022-09-03T09:34:51;2.07;;;1.90;;
8042;SDS011;4064;48.132;11.366;2022-09-03T09:37:18;4.17;;;2.27;;
8042;SDS011;4064;48.132;11.366;2022-09-03T09:39:55;2.10;;;1.90;;
8042;SDS011;4064;48.132;11.366;2022-09-03T09:42:22;2.40;;;1.90;;
8042;SDS011;4064;48.132;11.366;2022-09-03T09:44:49;1.90;;;1.80;;
8042;SDS011;4064;48.132;11.366;2022-09-03T09:47:19;4.33;;;1.97;;
8042;SDS011;4064;48.132;11.366;2022-09-03T09:49:53;1.97;;;1.67;;
8042;SDS011;4064;48.132;11.366;2022-09-03T09:52:20;2.03;;;1.23;;
8042;SDS011;4064;48.132;11.366;2022-09-03T09:54:49;1.83;;;1.70;;
8042;SDS011;4064;48.132;11.366;2022-09-03T09:57:21;1.50;;;1.20;;
8042;SDS011;4064;48.132;11.366;2022-09-03T09:59:48;2.10;;;1.50;;
8042;SDS011;4064;48.132;11.366;2022-09-03T10:02:33;2.00;;;1.60;;
8042;SDS011;4064;48.132;11.366;2022-09-03T10:05:19;2.00;;;1.77;;
8042;SDS011;4064;48.132;11.366;2022-09-03T10:07:56;2.50;;;1.50;;
8042;SDS011;4064;48.132;11.366;2022-09-03T10:10:26;1.87;;;1.77;;
8042;SDS011;4064;48.132;11.366;2022-09-03T10:13:38;1.40;;;1.20;;
8042;SDS011;4064;48.132;11.366;2022-09-03T10:21:41;1.70;;;1.43;;
8042;SDS011;4064;48.132;11.366;2022-09-03T10:24:17;3.10;;;1.70;;
8042;SDS011;4064;48.132;11.366;2022-09-03T10:27:12;1.87;;;1.47;;
8042;SDS011;4064;48.132;11.366;2022-09-03T10:29:41;1.60;;;1.27;;
8042;SDS011;4064;48.132;11.366;2022-09-03T10:34:57;2.03;;;1.77;;
8042;SDS011;4064;48.132;11.366;2022-09-03T10:37:32;1.67;;;1.57;;
8042;SDS011;4064;48.132;11.366;2022-09-03T10:50:47;1.90;;;1.57;;
8042;SDS011;4064;48.132;11.366;2022-09-03T10:59:12;1.30;;;1.17;;
8042;SDS011;4064;48.132;11.366;2022-09-03T11:01:48;1.67;;;1.47;;
8042;SDS011;4064;48.132;11.366;2022-09-03T11:04:50;1.80;;;1.33;;
8042;SDS011;4064;48.132;11.366;2022-09-03T11:07:43;1.50;;;1.33;;
8042;SDS011;4064;48.132;11.366;2022-09-03T11:12:46;3.40;;;1.77;;
8042;SDS011;4064;48.132;11.366;2022-09-03T11:15:33;1.97;;;1.20;;
8042;SDS011;4064;48.132;11.366;2022-09-03T11:21:01;1.50;;;1.40;;
8042;SDS011;4064;48.132;11.366;2022-09-03T11:23:31;2.10;;;1.50;;
8042;SDS011;4064;48.132;11.366;2022-09-03T11:26:03;1.90;;;1.50;;
8042;SDS011;4064;48.132;11.366;2022-09-03T11:34:25;1.57;;;1.27;;
8042;SDS011;4064;48.132;11.366;2022-09-03T11:37:07;2.30;;;1.43;;
8042;SDS011;4064;48.132;11.366;2022-09-03T11:40:13;1.40;;;1.30;;
8042;SDS011;4064;48.132;11.366;2022-09-03T11:42:42;1.90;;;1.67;;
8042;SDS011;4064;48.132;11.366;2022-09-03T11:47:54;1.20;;;0.90;;
8042;SDS011;4064;48.132;11.366;2022-09-03T11:50:32;1.30;;;1.20;;
8042;SDS011;4064;48.132;11.366;2022-09-03T11:56:21;2.70;;;1.50;;
8042;SDS011;4064;48.132;11.366;2022-09-03T11:58:34;1.40;;;1.30;;
8042;SDS011;4064;48.132;11.366;2022-09-03T12:01:23;1.53;;;1.43;;
8042;SDS011;4064;48.132;11.366;2022-09-03T12:03:51;1.83;;;1.60;;
8042;SDS011;4064;48.132;11.366;2022-09-03T12:19:39;1.73;;;1.27;;
8042;SDS011;4064;48.132;11.366;2022-09-03T12:22:20;2.17;;;1.20;;
8042;SDS011;4064;48.132;11.366;2022-09-03T12:24:48;1.80;;;1.47;;
8042;SDS011;4064;48.132;11.366;2022-09-03T12:27:19;1.73;;;1.37;;
8042;SDS011;4064;48.132;11.366;2022-09-03T12:30:02;1.63;;;1.47;;
8042;SDS011;4064;48.132;11.366;2022-09-03T12:32:30;1.60;;;1.50;;
8042;SDS011;4064;48.132;11.366;2022-09-03T12:35:20;2.27;;;1.10;;
8042;SDS011;4064;48.132;11.366;2022-09-03T12:37:50;1.50;;;1.10;;
8042;SDS011;4064;48.132;11.366;2022-09-03T12:42:45;1.60;;;1.23;;
8042;SDS011;4064;48.132;11.366;2022-09-03T12:45:11;1.60;;;1.13;;
8042;SDS011;4064;48.132;11.366;2022-09-03T12:47:40;1.50;;;1.10;;
8042;SDS011;4064;48.132;11.366;2022-09-03T12:50:17;1.50;;;1.37;;
8042;SDS011;4064;48.132;11.366;2022-09-03T12:58:08;1.80;;;1.50;;
8042;SDS011;4064;48.132;11.366;2022-09-03T13:00:49;1.30;;;1.20;;
8042;SDS011;4064;48.132;11.366;2022-09-03T13:03:27;1.20;;;0.90;;
8042;SDS011;4064;48.132;11.366;2022-09-03T13:05:55;1.83;;;1.10;;
8042;SDS011;4064;48.132;11.366;2022-09-03T13:08:25;1.53;;;1.43;;
8042;SDS011;4064;48.132;11.366;2022-09-03T13:10:55;3.90;;;1.33;;
8042;SDS011;4064;48.132;11.366;2022-09-03T13:13:24;2.10;;;1.23;;
8042;SDS011;4064;48.132;11.366;2022-09-03T13:15:56;3.93;;;1.60;;
8042;SDS011;4064;48.132;11.366;2022-09-03T13:18:46;1.50;;;1.20;;
8042;SDS011;4064;48.132;11.366;2022-09-03T13:21:30;1.33;;;1.20;;
8042;SDS011;4064;48.132;11.366;2022-09-03T13:29:36;1.40;;;1.30;;
8042;SDS011;4064;48.132;11.366;2022-09-03T13:35:08;2.00;;;1.43;;
8042;SDS011;4064;48.132;11.366;2022-09-03T13:42:57;1.50;;;1.40;;
8042;SDS011;4064;48.132;11.366;2022-09-03T13:45:38;3.00;;;2.47;;
8042;SDS011;4064;48.132;11.366;2022-09-03T13:48:16;1.77;;;1.50;;
8042;SDS011;4064;48.132;11.366;2022-09-03T13:51:28;1.80;;;1.70;;
8042;SDS011;4064;48.132;11.366;2022-09-03T13:54:23;1.53;;;1.43;;
8042;SDS011;4064;48.132;11.366;2022-09-03T13:56:59;1.60;;;1.50;;
8042;SDS011;4064;48.132;11.366;2022-09-03T13:59:31;2.27;;;1.80;;
8042;SDS011;4064;48.132;11.366;2022-09-03T14:04:52;3.90;;;2.60;;
8042;SDS011;4064;48.132;11.366;2022-09-03T14:07:27;13.13;;;5.40;;
8042;SDS011;4064;48.132;11.366;2022-09-03T14:12:43;6.60;;;2.87;;
8042;SDS011;4064;48.132;11.366;2022-09-03T14:15:34;3.17;;;2.27;;
8042;SDS011;4064;48.132;11.366;2022-09-03T14:21:14;9.60;;;2.07;;
8042;SDS011;4064;48.132;11.366;2022-09-03T14:26:47;3.40;;;1.60;;
8042;SDS011;4064;48.132;11.366;2022-09-03T14:29:19;3.23;;;2.13;;
8042;SDS011;4064;48.132;11.366;2022-09-03T14:37:01;5.13;;;2.33;;
8042;SDS011;4064;48.132;11.366;2022-09-03T14:45:01;4.13;;;1.80;;
8042;SDS011;4064;48.132;11.366;2022-09-03T14:53:20;3.47;;;2.43;;
8042;SDS011;4064;48.132;11.366;2022-09-03T14:58:42;3.67;;;1.83;;
8042;SDS011;4064;48.132;11.366;2022-09-03T15:01:27;6.90;;;2.50;;
8042;SDS011;4064;48.132;11.366;2022-09-03T15:07:15;3.40;;;2.00;;
8042;SDS011;4064;48.132;11.366;2022-09-03T15:12:44;3.50;;;2.57;;
8042;SDS011;4064;48.132;11.366;2022-09-03T15:36:58;3.63;;;2.20;;
8042;SDS011;4064;48.132;11.366;2022-09-03T15:39:32;3.30;;;2.40;;
8042;SDS011;4064;48.132;11.366;2022-09-03T15:42:09;7.87;;;2.30;;
8042;SDS011;4064;48.132;11.366;2022-09-03T15:44:46;3.20;;;2.40;;
8042;SDS011;4064;48.132;11.366;2022-09-03T15:47:31;3.80;;;2.23;;
8042;SDS011;4064;48.132;11.366;2022-09-03T15:52:51;2.90;;;2.10;;
8042;SDS011;4064;48.132;11.366;2022-09-03T16:01:25;2.33;;;2.10;;
8042;SDS011;4064;48.132;11.366;2022-09-03T16:14:48;4.60;;;2.23;;
8042;SDS011;4064;48.132;11.366;2022-09-03T16:17:32;2.80;;;1.90;;
8042;SDS011;4064;48.132;11.366;2022-09-03T16:22:55;2.20;;;1.70;;
8042;SDS011;4064;48.132;11.366;2022-09-03T16:25:31;3.00;;;1.93;;
8042;SDS011;4064;48.132;11.366;2022-09-03T16:28:31;4.00;;;1.80;;
8042;SDS011;4064;48.132;11.366;2022-09-03T16:39:39;2.57;;;2.23;;
8042;SDS011;4064;48.132;11.366;2022-09-03T16:44:53;2.93;;;2.20;;
8042;SDS011;4064;48.132;11.366;2022-09-03T16:47:51;2.67;;;1.73;;
8042;SDS011;4064;48.132;11.366;2022-09-03T16:59:53;3.47;;;2.10;;
8042;SDS011;4064;48.132;11.366;2022-09-03T17:10:52;2.47;;;2.07;;
8042;SDS011;4064;48.132;11.366;2022-09-03T17:19:05;3.40;;;2.43;;
8042;SDS011;4064;48.132;11.366;2022-09-03T17:27:30;3.20;;;2.13;;
8042;SDS011;4064;48.132;11.366;2022-09-03T17:43:38;3.23;;;1.90;;
8042;SDS011;4064;48.132;11.366;2022-09-03T17:49:00;1.70;;;1.57;;
8042;SDS011;4064;48.132;11.366;2022-09-03T17:54:52;1.90;;;1.60;;
8042;SDS011;4064;48.132;11.366;2022-09-03T18:02:32;1.80;;;1.67;;
8042;SDS011;4064;48.132;11.366;2022-09-03T18:10:44;4.00;;;2.33;;
8042;SDS011;4064;48.132;11.366;2022-09-03T18:16:28;3.40;;;2.10;;
8042;SDS011;4064;48.132;11.366;2022-09-03T18:21:27;10.40;;;2.17;;
8042;SDS011;4064;48.132;11.366;2022-09-03T18:27:18;1.73;;;1.40;;
8042;SDS011;4064;48.132;11.366;2022-09-03T18:30:18;2.87;;;2.00;;
8042;SDS011;4064;48.132;11.366;2022-09-03T18:33:03;4.90;;;1.80;;
8042;SDS011;4064;48.132;11.366;2022-09-03T18:35:47;2.20;;;1.80;;
8042;SDS011;4064;48.132;11.366;2022-09-03T18:38:33;2.83;;;2.10;;
8042;SDS011;4064;48.132;11.366;2022-09-03T18:41:30;2.33;;;2.00;;
8042;SDS011;4064;48.132;11.366;2022-09-03T18:47:41;3.20;;;2.07;;
8042;SDS011;4064;48.132;11.366;2022-09-03T18:57:31;2.10;;;1.80;;
8042;SDS011;4064;48.132;11.366;2022-09-03T19:00:34;4.47;;;2.93;;
8042;SDS011;4064;48.132;11.366;2022-09-03T19:03:38;2.50;;;2.27;;
8042;SDS011;4064;48.132;11.366;2022-09-03T19:06:49;2.80;;;2.10;;
8042;SDS011;4064;48.132;11.366;2022-09-03T19:09:55;2.73;;;2.40;;
8042;SDS011;4064;48.132;11.366;2022-09-03T19:22:34;3.40;;;2.93;;
8042;SDS011;4064;48.132;11.366;2022-09-03T19:25:19;5.93;;;3.03;;
8042;SDS011;4064;48.132;11.366;2022-09-03T19:28:19;4.07;;;3.30;;
8042;SDS011;4064;48.132;11.366;2022-09-03T19:37:36;2.70;;;2.50;;
8042;SDS011;4064;48.132;11.366;2022-09-03T19:40:52;3.47;;;3.03;;
8042;SDS011;4064;48.132;11.366;2022-09-03T19:46:45;5.03;;;4.00;;
8042;SDS011;4064;48.132;11.366;2022-09-03T19:55:51;3.67;;;3.37;;
8042;SDS011;4064;48.132;11.366;2022-09-03T19:58:46;7.17;;;4.40;;
8042;SDS011;4064;48.132;11.366;2022-09-03T20:01:38;4.23;;;3.80;;
8042;SDS011;4064;48.132;11.366;2022-09-03T20:07:16;3.50;;;3.20;;
8042;SDS011;4064;48.132;11.366;2022-09-03T20:10:03;4.30;;;2.60;;
8042;SDS011;4064;48.132;11.366;2022-09-03T20:12:53;2.83;;;2.63;;
8042;SDS011;4064;48.132;11.366;2022-09-03T20:30:14;2.73;;;2.37;;
8042;SDS011;4064;48.132;11.366;2022-09-03T20:38:32;3.73;;;2.40;;
8042;SDS011;4064;48.132;11.366;2022-09-03T20:43:48;7.50;;;2.23;;
8042;SDS011;4064;48.132;11.366;2022-09-03T20:46:43;6.17;;;2.87;;
8042;SDS011;4064;48.132;11.366;2022-09-03T20:49:22;2.53;;;2.33;;
8042;SDS011;4064;48.132;11.366;2022-09-03T20:52:14;5.90;;;2.53;;
8042;SDS011;4064;48.132;11.366;2022-09-03T20:54:56;4.10;;;2.50;;
8042;SDS011;4064;48.132;11.366;2022-09-03T20:58:05;2.90;;;2.57;;
8042;SDS011;4064;48.132;11.366;2022-09-03T21:00:40;3.90;;;2.60;;
8042;SDS011;4064;48.132;11.366;2022-09-03T21:03:23;4.33;;;2.93;;
8042;SDS011;4064;48.132;11.366;2022-09-03T21:06:06;3.60;;;2.83;;
8042;SDS011;4064;48.132;11.366;2022-09-03T21:16:40;3.50;;;2.73;;
8042;SDS011;4064;48.132;11.366;2022-09-03T21:19:29;2.20;;;2.00;;
8042;SDS011;4064;48.132;11.366;2022-09-03T21:27:18;4.30;;;2.43;;
8042;SDS011;4064;48.132;11.366;2022-09-03T21:32:36;3.23;;;2.93;;
8042;SDS011;4064;48.132;11.366;2022-09-03T21:38:21;4.10;;;3.03;;
8042;SDS011;4064;48.132;11.366;2022-09-03T21:44:13;2.57;;;2.37;;
8042;SDS011;4064;48.132;11.366;2022-09-03T21:46:57;3.10;;;1.90;;
8042;SDS011;4064;48.132;11.366;2022-09-03T21:49:37;6.70;;;2.77;;
8042;SDS011;4064;48.132;11.366;2022-09-03T21:52:13;4.70;;;2.30;;
8042;SDS011;4064;48.132;11.366;2022-09-03T21:54:43;4.30;;;2.30;;
8042;SDS011;4064;48.132;11.366;2022-09-03T21:59:56;6.53;;;2.27;;
8042;SDS011;4064;48.132;11.366;2022-09-03T22:02:27;4.40;;;2.67;;
8042;SDS011;4064;48.132;11.366;2022-09-03T22:04:56;2.90;;;2.63;;
8042;SDS011;4064;48.132;11.366;2022-09-03T22:07:38;3.37;;;2.10;;
8042;SDS011;4064;48.132;11.366;2022-09-03T22:15:33;2.77;;;2.50;;
8042;SDS011;4064;48.132;11.366;2022-09-03T22:18:18;2.43;;;2.23;;
8042;SDS011;4064;48.132;11.366;2022-09-03T22:23:33;3.10;;;2.80;;
8042;SDS011;4064;48.132;11.366;2022-09-03T22:26:15;3.57;;;2.30;;
8042;SDS011;4064;48.132;11.366;2022-09-03T22:32:33;4.10;;;2.90;;
8042;SDS011;4064;48.132;11.366;2022-09-03T22:45:37;3.80;;;2.90;;
8042;SDS011;4064;48.132;11.366;2022-09-03T22:48:17;2.90;;;2.50;;
8042;SDS011;4064;48.132;11.366;2022-09-03T22:51:03;3.63;;;2.80;;
8042;SDS011;4064;48.132;11.366;2022-09-03T22:56:11;3.93;;;2.57;;
8042;SDS011;4064;48.132;11.366;2022-09-03T23:01:19;5.10;;;3.13;;
8042;SDS011;4064;48.132;11.366;2022-09-03T23:07:00;3.20;;;2.90;;